Time;durP1;ratioP1;P1;durP2;ratioP2;P2;SDS_P1;SDS_P2;PMS_P1;PMS_P2;Temp;Humidity;BMP_temperature;BMP_pressure;BME280_temperature;BME280_humidity;BME280_pressure;Samples;Min_cycle;Max_cycle;Signal;HPM_P1;HPM_P2
2023/05/22 00:00:44;;;;;;;10.48;5.25;;;21.00;96.30;;;;;;10226042;27;20142;-62
2023/05/22 00:05:37;;;;;;;6.70;4.90;;;21.00;96.50;;;;;;10222163;28;20169;-68
2023/05/22 00:10:28;;;;;;;9.40;5.53;;;21.10;96.60;;;;;;10222476;28;20023;-68
2023/05/22 00:15:18;;;;;;;8.30;5.75;;;21.00;96.80;;;;;;10233700;27;20020;-66
2023/05/22 00:20:09;;;;;;;7.05;4.93;;;20.90;97.10;;;;;;10222217;28;20508;-64
2023/05/22 00:25:02;;;;;;;8.05;5.65;;;20.80;97.40;;;;;;10201923;28;20024;-63
2023/05/22 00:29:53;;;;;;;8.50;5.43;;;20.70;97.60;;;;;;10221428;27;20559;-65
2023/05/22 00:34:45;;;;;;;9.85;5.25;;;20.70;97.70;;;;;;10220031;28;20107;-66
2023/05/22 00:39:35;;;;;;;9.05;5.25;;;20.70;97.80;;;;;;10221614;28;20424;-62
2023/05/22 00:44:26;;;;;;;7.78;4.88;;;20.70;98.00;;;;;;10220767;27;20424;-62
2023/05/22 00:49:17;;;;;;;6.15;4.45;;;20.70;98.10;;;;;;10194190;28;20126;-62
2023/05/22 00:54:09;;;;;;;6.80;5.03;;;20.50;98.30;;;;;;10224535;27;20016;-69
2023/05/22 00:58:59;;;;;;;8.45;5.50;;;20.50;98.60;;;;;;10198643;28;20413;-66
2023/05/22 01:03:52;;;;;;;6.38;4.35;;;20.30;98.80;;;;;;10220684;28;20048;-75
2023/05/22 01:08:43;;;;;;;7.53;4.22;;;20.30;99.00;;;;;;10224634;27;20342;-62
2023/05/22 01:14:02;;;;;;;9.15;5.30;;;20.30;99.10;;;;;;10220041;28;20762;-67
2023/05/22 01:19:03;;;;;;;7.18;4.70;;;20.20;99.30;;;;;;10218845;28;20071;-67
2023/05/22 01:24:14;;;;;;;8.80;5.40;;;20.20;99.40;;;;;;10228919;27;20028;-71
2023/05/22 01:29:46;;;;;;;7.50;4.80;;;20.10;99.70;;;;;;10220307;28;20073;-70
2023/05/22 01:34:38;;;;;;;7.20;4.80;;;20.20;99.80;;;;;;10219502;28;20012;-67
2023/05/22 01:39:29;;;;;;;6.93;4.80;;;20.00;99.90;;;;;;10187105;28;20043;-66
2023/05/22 01:44:20;;;;;;;8.38;4.65;;;20.00;99.90;;;;;;10211446;28;20012;-68
2023/05/22 01:49:10;;;;;;;9.73;5.28;;;19.90;99.90;;;;;;10219419;28;20046;-63
2023/05/22 01:54:13;;;;;;;6.82;5.13;;;19.90;99.90;;;;;;10223089;28;20533;-70
2023/05/22 01:59:20;;;;;;;10.52;5.45;;;19.90;99.90;;;;;;10213345;28;20040;-65
2023/05/22 02:04:14;;;;;;;11.02;5.75;;;19.80;99.90;;;;;;10219411;28;20054;-66
2023/05/22 02:09:07;;;;;;;7.85;4.53;;;19.70;99.90;;;;;;10217718;28;20032;-63
2023/05/22 02:13:57;;;;;;;8.57;5.10;;;19.60;99.90;;;;;;10218874;28;20031;-65
2023/05/22 02:18:48;;;;;;;6.85;4.55;;;19.60;99.90;;;;;;10221498;28;20034;-64
2023/05/22 02:23:39;;;;;;;7.20;4.28;;;19.50;99.90;;;;;;10218677;28;20106;-62
2023/05/22 02:28:30;;;;;;;9.18;5.32;;;19.40;99.90;;;;;;10220272;27;20019;-70
2023/05/22 02:33:21;;;;;;;7.07;5.07;;;19.40;99.90;;;;;;10226695;28;20038;-63
2023/05/22 02:38:11;;;;;;;6.65;4.45;;;19.40;99.90;;;;;;10224921;27;20034;-67
2023/05/22 02:43:02;;;;;;;7.30;4.45;;;19.30;99.90;;;;;;10206498;28;20438;-66
2023/05/22 02:47:53;;;;;;;7.18;4.72;;;19.40;99.90;;;;;;10214602;28;20497;-67
2023/05/22 02:52:44;;;;;;;9.95;4.95;;;19.50;99.90;;;;;;10226302;28;20036;-63
2023/05/22 02:57:34;;;;;;;7.68;4.93;;;19.50;99.90;;;;;;10225947;28;20032;-66
2023/05/22 03:02:27;;;;;;;5.85;4.38;;;19.50;99.90;;;;;;10219217;28;20039;-69
2023/05/22 03:07:19;;;;;;;8.52;4.65;;;19.50;99.90;;;;;;10210443;28;20071;-66
2023/05/22 03:12:09;;;;;;;6.90;4.30;;;19.40;99.90;;;;;;10212342;28;20032;-62
2023/05/22 03:17:00;;;;;;;6.35;4.47;;;19.30;99.90;;;;;;10228309;27;20027;-70
2023/05/22 03:21:50;;;;;;;8.18;4.53;;;19.30;99.90;;;;;;10206920;27;20035;-62
2023/05/22 03:26:42;;;;;;;12.65;4.53;;;19.30;99.90;;;;;;10224420;28;20072;-64
2023/05/22 03:31:33;;;;;;;6.55;3.72;;;19.50;99.90;;;;;;10231825;27;20050;-76
2023/05/22 03:36:24;;;;;;;8.02;4.25;;;19.40;99.90;;;;;;10224014;28;20043;-63
2023/05/22 03:41:15;;;;;;;6.43;3.97;;;19.40;99.90;;;;;;10214384;28;20190;-63
2023/05/22 03:46:05;;;;;;;8.05;4.65;;;19.40;99.90;;;;;;10217057;27;20388;-65
2023/05/22 03:50:56;;;;;;;8.73;4.95;;;19.30;99.90;;;;;;10206501;28;20031;-67
2023/05/22 03:55:46;;;;;;;6.68;4.45;;;19.30;99.90;;;;;;10223495;28;20397;-63
2023/05/22 04:00:37;;;;;;;7.80;4.53;;;19.30;99.90;;;;;;10204644;28;20035;-62
2023/05/22 04:05:28;;;;;;;6.80;4.28;;;19.30;99.90;;;;;;10223303;28;20024;-63
2023/05/22 04:10:21;;;;;;;7.30;5.70;;;19.40;99.90;;;;;;10213884;28;20024;-62
2023/05/22 04:15:12;;;;;;;7.38;4.88;;;19.50;99.90;;;;;;10230787;27;20465;-65
2023/05/22 04:20:04;;;;;;;7.57;4.40;;;19.50;99.90;;;;;;10212364;28;20119;-62
2023/05/22 04:24:55;;;;;;;9.20;5.07;;;19.50;99.90;;;;;;10223332;27;20470;-62
2023/05/22 04:29:45;;;;;;;8.30;4.45;;;19.60;99.90;;;;;;10223671;27;20016;-61
2023/05/22 04:34:36;;;;;;;8.13;4.53;;;19.70;99.90;;;;;;10203744;28;20023;-66
2023/05/22 04:39:26;;;;;;;7.32;4.35;;;19.60;99.90;;;;;;10226573;27;20027;-63
2023/05/22 04:44:21;;;;;;;5.78;4.45;;;19.70;99.90;;;;;;10212846;28;20024;-62
2023/05/22 04:49:13;;;;;;;9.20;4.88;;;19.70;99.90;;;;;;10221568;28;20114;-67
2023/05/22 04:54:04;;;;;;;6.20;4.65;;;19.60;99.90;;;;;;10231163;27;20027;-64
2023/05/22 04:58:55;;;;;;;7.43;3.92;;;19.70;99.90;;;;;;10212949;28;20502;-63
2023/05/22 05:03:45;;;;;;;6.85;3.95;;;19.70;99.90;;;;;;10220121;28;20497;-64
2023/05/22 05:08:36;;;;;;;7.60;5.32;;;19.80;99.90;;;;;;10219130;27;20486;-62
2023/05/22 05:13:27;;;;;;;5.53;3.95;;;20.00;99.90;;;;;;10202420;28;20101;-62
2023/05/22 05:18:18;;;;;;;7.40;4.75;;;19.90;99.90;;;;;;10202084;28;20024;-63
2023/05/22 05:23:09;;;;;;;5.63;3.97;;;20.00;99.90;;;;;;10204142;27;20536;-64
2023/05/22 05:28:00;;;;;;;13.48;3.80;;;20.00;99.90;;;;;;10220214;28;20030;-63
2023/05/22 05:32:50;;;;;;;10.05;4.50;;;20.10;99.90;;;;;;10220249;28;20026;-63
2023/05/22 05:37:42;;;;;;;8.10;4.88;;;20.10;99.90;;;;;;10221137;27;20024;-64
2023/05/22 05:42:32;;;;;;;6.32;4.15;;;20.20;99.90;;;;;;10211806;28;20024;-63
2023/05/22 05:47:23;;;;;;;7.47;4.22;;;20.20;99.90;;;;;;10219190;28;20023;-62
2023/05/22 05:52:14;;;;;;;9.35;4.88;;;20.10;99.90;;;;;;10222253;28;20493;-65
2023/05/22 05:57:05;;;;;;;7.55;4.05;;;20.00;99.90;;;;;;10219508;28;20020;-63
2023/05/22 06:01:56;;;;;;;5.72;4.13;;;20.10;99.90;;;;;;10198291;28;20048;-62
2023/05/22 06:06:47;;;;;;;7.63;4.32;;;20.00;99.90;;;;;;10229719;27;20404;-63
2023/05/22 06:11:37;;;;;;;5.07;4.22;;;20.10;99.90;;;;;;10227320;28;20027;-65
2023/05/22 06:16:28;;;;;;;7.78;4.38;;;20.30;99.90;;;;;;10227490;28;20030;-62
2023/05/22 06:21:23;;;;;;;7.55;4.68;;;20.20;99.90;;;;;;10232550;27;20046;-62
2023/05/22 06:26:13;;;;;;;7.82;4.93;;;20.30;99.90;;;;;;10207928;28;20099;-62
2023/05/22 06:31:04;;;;;;;6.68;4.00;;;20.20;99.90;;;;;;10215901;28;20031;-61
2023/05/22 06:35:55;;;;;;;7.10;4.80;;;20.30;99.90;;;;;;10223492;27;20015;-62
2023/05/22 06:40:46;;;;;;;6.03;4.00;;;20.40;99.90;;;;;;10225453;28;20095;-65
2023/05/22 06:45:37;;;;;;;5.82;3.78;;;20.60;99.90;;;;;;10228422;27;20040;-66
2023/05/22 06:50:28;;;;;;;5.68;3.85;;;20.60;99.90;;;;;;10227429;27;20031;-75
2023/05/22 06:55:19;;;;;;;5.68;3.97;;;20.70;99.90;;;;;;10226157;28;20061;-62
2023/05/22 07:00:11;;;;;;;6.90;4.57;;;20.80;99.90;;;;;;10225766;27;20092;-63
2023/05/22 07:05:03;;;;;;;8.10;4.38;;;20.80;99.90;;;;;;10209141;28;20039;-63
2023/05/22 07:09:53;;;;;;;5.93;3.63;;;21.10;99.90;;;;;;10225839;28;20216;-63
2023/05/22 07:14:44;;;;;;;4.18;3.38;;;21.20;99.90;;;;;;10228446;27;20350;-64
2023/05/22 07:19:34;;;;;;;5.85;3.70;;;21.30;99.90;;;;;;10224470;28;20035;-62
2023/05/22 07:24:25;;;;;;;7.72;3.63;;;21.30;99.90;;;;;;10224799;28;20031;-64
2023/05/22 07:29:16;;;;;;;8.55;3.78;;;21.30;99.90;;;;;;10226674;27;20461;-64
2023/05/22 07:34:07;;;;;;;5.18;3.38;;;21.30;99.90;;;;;;10225422;28;20024;-65
2023/05/22 07:38:58;;;;;;;7.72;3.22;;;21.30;99.90;;;;;;10223777;28;20115;-65
2023/05/22 07:43:49;;;;;;;6.05;3.83;;;21.40;99.90;;;;;;10225854;27;20131;-64
2023/05/22 07:48:39;;;;;;;5.90;3.72;;;21.40;99.90;;;;;;10203287;28;20028;-65
2023/05/22 07:53:30;;;;;;;8.90;4.03;;;21.60;99.90;;;;;;10223554;28;20028;-64
2023/05/22 07:58:22;;;;;;;7.20;4.50;;;21.60;99.90;;;;;;10223947;27;20179;-63
2023/05/22 08:03:13;;;;;;;8.75;3.80;;;21.70;99.90;;;;;;10227816;28;20063;-62
2023/05/22 08:08:04;;;;;;;6.38;3.92;;;21.60;99.90;;;;;;10204651;28;20477;-67
2023/05/22 08:12:54;;;;;;;5.53;4.20;;;21.70;99.90;;;;;;10224976;27;20495;-64
2023/05/22 08:17:45;;;;;;;4.65;3.97;;;21.80;99.90;;;;;;10222646;28;20437;-63
2023/05/22 08:22:37;;;;;;;7.35;4.15;;;22.20;99.90;;;;;;10223566;27;20034;-62
2023/05/22 08:27:28;;;;;;;5.25;3.95;;;22.40;99.90;;;;;;10213358;27;20047;-66
2023/05/22 08:32:19;;;;;;;6.70;4.40;;;22.40;99.90;;;;;;10222414;27;20526;-74
2023/05/22 08:37:09;;;;;;;8.15;4.18;;;22.30;99.90;;;;;;10222703;27;20027;-65
2023/05/22 08:42:02;;;;;;;6.35;4.03;;;22.40;99.90;;;;;;10200428;28;20039;-69
2023/05/22 08:46:55;;;;;;;7.22;4.82;;;22.50;99.90;;;;;;10230400;27;20081;-63
2023/05/22 08:51:51;;;;;;;7.50;4.32;;;22.50;99.90;;;;;;10223361;28;20035;-66
2023/05/22 08:56:41;;;;;;;7.40;4.68;;;22.50;99.90;;;;;;10223359;27;20489;-62
2023/05/22 09:01:32;;;;;;;8.95;5.00;;;22.60;99.90;;;;;;10214462;28;20134;-62
2023/05/22 09:06:23;;;;;;;7.72;5.65;;;22.80;99.80;;;;;;10223205;27;20064;-62
2023/05/22 09:11:13;;;;;;;6.43;4.43;;;23.10;99.70;;;;;;10224450;27;20024;-71
2023/05/22 09:16:11;;;;;;;8.30;4.78;;;23.20;99.60;;;;;;10202713;28;20027;-73
2023/05/22 09:21:03;;;;;;;6.95;4.97;;;23.30;99.40;;;;;;10206719;27;20038;-75
2023/05/22 09:25:58;;;;;;;9.57;5.68;;;23.40;99.40;;;;;;10225048;28;20054;-64
2023/05/22 09:30:50;;;;;;;7.28;5.45;;;23.50;99.20;;;;;;10224480;28;20015;-65
2023/05/22 09:35:42;;;;;;;7.93;5.22;;;23.70;99.00;;;;;;10207812;28;20114;-64
2023/05/22 09:40:33;;;;;;;7.95;5.18;;;23.70;99.00;;;;;;10217790;28;20082;-63
2023/05/22 09:45:26;;;;;;;9.77;5.82;;;23.80;98.80;;;;;;10215839;28;20067;-63
2023/05/22 09:50:17;;;;;;;10.45;5.60;;;24.00;98.60;;;;;;10207882;28;20080;-64
2023/05/22 09:55:09;;;;;;;11.02;6.05;;;23.90;98.50;;;;;;10219502;28;20269;-62
2023/05/22 10:00:03;;;;;;;6.95;5.88;;;23.80;98.30;;;;;;10195533;28;20115;-63
2023/05/22 10:04:53;;;;;;;9.20;5.30;;;23.90;98.20;;;;;;10223669;28;20056;-63
2023/05/22 10:09:50;;;;;;;9.52;5.78;;;24.00;98.10;;;;;;10219152;28;20034;-65
2023/05/22 10:14:42;;;;;;;6.43;5.25;;;24.10;98.10;;;;;;10219395;28;20022;-68
2023/05/22 10:19:34;;;;;;;8.98;5.65;;;24.30;98.10;;;;;;10202481;28;20126;-73
2023/05/22 10:24:25;;;;;;;9.85;5.60;;;24.50;98.00;;;;;;10219195;28;20043;-63
2023/05/22 10:29:22;;;;;;;8.45;5.82;;;24.50;98.00;;;;;;10219298;28;20038;-64
2023/05/22 10:34:23;;;;;;;14.00;8.35;;;24.60;97.90;;;;;;10226461;28;20027;-64
2023/05/22 10:39:41;;;;;;;10.32;7.32;;;24.60;97.70;;;;;;10219369;28;20039;-62
2023/05/22 10:44:32;;;;;;;9.35;6.05;;;24.70;97.50;;;;;;10218672;28;20038;-62
2023/05/22 10:49:24;;;;;;;8.95;6.28;;;24.80;97.40;;;;;;10220151;28;20371;-70
2023/05/22 10:54:15;;;;;;;14.13;6.55;;;25.00;97.10;;;;;;10227868;28;20023;-62
2023/05/22 10:59:08;;;;;;;12.00;7.72;;;25.30;97.00;;;;;;10221120;28;20028;-64
2023/05/22 11:04:10;;;;;;;9.25;6.10;;;25.40;96.80;;;;;;10226095;28;20048;-62
2023/05/22 11:09:27;;;;;;;8.88;6.38;;;25.30;96.80;;;;;;10225240;28;20107;-62
2023/05/22 11:14:19;;;;;;;9.52;6.45;;;25.50;96.50;;;;;;10226573;27;20080;-63
2023/05/22 11:19:10;;;;;;;8.38;5.70;;;25.70;96.50;;;;;;10225126;28;20078;-65
2023/05/22 11:24:01;;;;;;;7.53;6.13;;;25.90;96.30;;;;;;10225315;28;20031;-68
2023/05/22 11:28:52;;;;;;;9.10;6.50;;;25.90;96.00;;;;;;10225379;28;20027;-74
2023/05/22 11:33:45;;;;;;;9.55;6.15;;;26.00;95.70;;;;;;10209077;28;20473;-63
2023/05/22 11:38:37;;;;;;;8.90;6.65;;;26.20;95.40;;;;;;10206060;28;20023;-74
2023/05/22 11:43:30;;;;;;;8.18;6.05;;;26.60;95.00;;;;;;10200938;28;20055;-63
2023/05/22 11:48:22;;;;;;;8.05;6.47;;;26.50;94.70;;;;;;10219092;28;20015;-62
2023/05/22 11:53:13;;;;;;;11.98;7.32;;;26.70;94.50;;;;;;10224410;28;20028;-72
2023/05/22 11:58:03;;;;;;;8.98;6.22;;;27.10;94.10;;;;;;10223188;27;20047;-63
2023/05/22 12:02:54;;;;;;;8.40;7.20;;;27.10;93.90;;;;;;10227121;27;20054;-66
2023/05/22 12:07:45;;;;;;;10.13;6.22;;;27.50;93.60;;;;;;10222899;28;20020;-63
2023/05/22 12:12:37;;;;;;;10.30;6.30;;;27.70;93.50;;;;;;10223948;27;20020;-63
2023/05/22 12:17:27;;;;;;;8.43;6.32;;;28.10;92.90;;;;;;10221769;28;20074;-63
2023/05/22 12:22:19;;;;;;;10.48;5.47;;;28.60;92.50;;;;;;10222535;28;20497;-63
2023/05/22 12:27:11;;;;;;;6.40;5.55;;;28.80;92.00;;;;;;10222680;27;20046;-66
2023/05/22 12:32:02;;;;;;;7.25;5.75;;;29.50;91.60;;;;;;10203359;28;20036;-63
2023/05/22 12:36:53;;;;;;;11.07;7.38;;;29.70;91.20;;;;;;10222027;28;20093;-63
2023/05/22 12:41:44;;;;;;;7.25;6.20;;;30.00;90.90;;;;;;10195104;28;20133;-64
2023/05/22 12:46:35;;;;;;;7.07;5.95;;;29.90;91.00;;;;;;10224527;28;20035;-66
2023/05/22 12:51:30;;;;;;;6.32;5.72;;;30.00;90.60;;;;;;10232733;27;20032;-68
2023/05/22 12:56:22;;;;;;;7.57;5.63;;;30.70;90.50;;;;;;10228299;28;20551;-62
2023/05/22 13:01:12;;;;;;;7.50;4.87;;;32.10;89.90;;;;;;10220669;28;20047;-63
2023/05/22 13:06:03;;;;;;;6.53;5.80;;;33.30;87.30;;;;;;10205852;28;20023;-66
2023/05/22 13:10:54;;;;;;;7.40;6.37;;;34.10;85.00;;;;;;10223295;28;20059;-63
2023/05/22 13:15:44;;;;;;;10.10;7.10;;;34.20;83.10;;;;;;10222474;28;20016;-65
2023/05/22 13:20:37;;;;;;;6.73;6.07;;;34.80;81.60;;;;;;10225376;27;20047;-72
2023/05/22 13:25:27;;;;;;;7.10;6.40;;;35.10;80.00;;;;;;10221167;28;20031;-70
2023/05/22 13:30:18;;;;;;;8.03;7.27;;;34.10;79.40;;;;;;10223904;28;20038;-65
2023/05/22 13:35:09;;;;;;;9.33;6.33;;;34.60;78.20;;;;;;10239779;27;20114;-71
2023/05/22 13:40:00;;;;;;;7.05;5.72;;;34.40;77.20;;;;;;10225867;28;20034;-73
2023/05/22 13:44:50;;;;;;;8.60;6.23;;;34.60;76.80;;;;;;10199039;28;20032;-63
2023/05/22 13:49:41;;;;;;;6.80;6.10;;;34.80;75.60;;;;;;10227285;27;20031;-64
2023/05/22 13:54:31;;;;;;;6.83;5.77;;;35.00;74.50;;;;;;10210740;28;20027;-63
2023/05/22 13:59:23;;;;;;;6.37;5.77;;;35.00;73.70;;;;;;10227047;28;20036;-64
2023/05/22 14:04:13;;;;;;;7.22;6.30;;;35.00;72.70;;;;;;10225324;28;20408;-63
2023/05/22 14:09:06;;;;;;;7.93;5.80;;;35.30;71.90;;;;;;10219604;28;20036;-62
2023/05/22 14:13:56;;;;;;;7.00;6.30;;;34.50;72.00;;;;;;10219584;28;20099;-63
2023/05/22 14:18:47;;;;;;;7.17;6.23;;;35.00;70.90;;;;;;10219177;28;20085;-63
2023/05/22 14:23:38;;;;;;;7.40;5.57;;;34.90;70.50;;;;;;10219932;28;20024;-62
2023/05/22 14:28:30;;;;;;;8.00;7.23;;;34.60;70.40;;;;;;10230114;28;20027;-64
2023/05/22 14:33:21;;;;;;;6.88;6.18;;;34.30;70.20;;;;;;10227735;28;20024;-62
2023/05/22 14:38:11;;;;;;;7.90;6.77;;;34.00;70.70;;;;;;10228829;28;20173;-63
2023/05/22 14:43:02;;;;;;;8.97;5.97;;;34.70;70.10;;;;;;10219848;28;20049;-63
2023/05/22 14:47:53;;;;;;;7.37;5.90;;;34.60;70.00;;;;;;10226428;27;20036;-63
2023/05/22 14:52:44;;;;;;;7.00;5.75;;;34.40;69.40;;;;;;10227417;28;20030;-65
2023/05/22 14:57:35;;;;;;;8.83;5.03;;;34.70;68.90;;;;;;10232476;27;20348;-63
2023/05/22 15:02:26;;;;;;;5.60;5.10;;;34.10;68.40;;;;;;10226197;28;20058;-62
2023/05/22 15:07:16;;;;;;;7.40;5.60;;;34.60;67.80;;;;;;10222399;28;20084;-68
2023/05/22 15:12:07;;;;;;;5.80;5.27;;;35.20;66.50;;;;;;10225356;27;20039;-66
2023/05/22 15:17:00;;;;;;;4.57;4.17;;;35.80;66.40;;;;;;10220435;28;20169;-65
2023/05/22 15:21:53;;;;;;;5.55;5.05;;;35.90;65.40;;;;;;10224920;28;20543;-63
2023/05/22 15:26:43;;;;;;;7.32;5.50;;;36.20;64.70;;;;;;10234370;27;20106;-64
2023/05/22 15:31:34;;;;;;;6.17;5.50;;;35.20;64.30;;;;;;10228556;28;20134;-66
2023/05/22 15:36:26;;;;;;;5.32;4.47;;;34.00;65.00;;;;;;10228968;28;20020;-64
2023/05/22 15:41:17;;;;;;;6.17;4.37;;;32.60;65.50;;;;;;10222488;28;20393;-64
2023/05/22 15:46:09;;;;;;;6.72;5.97;;;32.00;65.60;;;;;;10220121;28;20030;-63
2023/05/22 15:50:59;;;;;;;7.35;4.90;;;32.00;65.30;;;;;;10225162;28;20026;-64
2023/05/22 15:55:50;;;;;;;6.65;5.28;;;31.30;65.80;;;;;;10230103;27;20505;-63
2023/05/22 16:00:41;;;;;;;6.57;5.18;;;30.70;66.30;;;;;;10225268;28;20477;-62
2023/05/22 16:05:33;;;;;;;6.30;4.95;;;30.00;67.10;;;;;;10223500;28;20501;-64
2023/05/22 16:10:24;;;;;;;7.13;5.45;;;29.60;67.80;;;;;;10233236;27;20223;-62
2023/05/22 16:15:14;;;;;;;8.60;5.70;;;29.40;68.40;;;;;;10204982;28;20203;-63
2023/05/22 16:20:07;;;;;;;7.82;6.05;;;29.10;69.40;;;;;;10223833;28;20043;-63
2023/05/22 16:24:57;;;;;;;6.82;6.13;;;28.90;70.10;;;;;;10213648;28;20031;-62
2023/05/22 16:29:48;;;;;;;9.38;6.07;;;28.70;71.30;;;;;;10200147;28;20020;-64
2023/05/22 16:34:39;;;;;;;7.80;5.35;;;28.40;71.70;;;;;;10223673;28;20031;-68
2023/05/22 16:39:29;;;;;;;7.90;4.28;;;27.90;72.90;;;;;;10230333;27;20036;-70
2023/05/22 16:44:20;;;;;;;7.90;5.13;;;27.60;73.00;;;;;;10209519;28;20500;-64
2023/05/22 16:49:10;;;;;;;7.95;5.13;;;27.40;73.90;;;;;;10229785;27;20028;-68
2023/05/22 16:54:01;;;;;;;7.80;5.20;;;27.30;73.60;;;;;;10208057;28;20016;-64
2023/05/22 16:58:52;;;;;;;10.15;5.72;;;27.40;73.70;;;;;;10206755;27;20034;-64
2023/05/22 17:03:43;;;;;;;7.05;5.50;;;27.20;74.50;;;;;;10223075;28;20047;-63
2023/05/22 17:08:34;;;;;;;9.48;5.63;;;27.10;75.30;;;;;;10221122;28;20027;-64
2023/05/22 17:13:25;;;;;;;7.22;4.65;;;27.30;76.00;;;;;;10220613;28;20031;-63
2023/05/22 17:18:18;;;;;;;8.82;5.70;;;27.30;76.50;;;;;;10220973;28;20573;-63
2023/05/22 17:23:09;;;;;;;8.63;7.10;;;26.90;77.10;;;;;;10216313;28;20038;-70
2023/05/22 17:28:00;;;;;;;8.50;6.03;;;26.60;78.20;;;;;;10224125;28;20103;-63
2023/05/22 17:32:52;;;;;;;10.25;6.78;;;26.30;78.80;;;;;;10223971;28;20069;-69
2023/05/22 17:37:42;;;;;;;10.02;6.15;;;26.20;79.20;;;;;;10219220;28;20462;-67
2023/05/22 17:42:33;;;;;;;8.85;5.88;;;26.20;79.50;;;;;;10222794;28;20119;-67
2023/05/22 17:47:24;;;;;;;10.50;6.75;;;26.10;80.10;;;;;;10220407;28;20027;-81
2023/05/22 17:52:14;;;;;;;7.93;6.10;;;26.10;80.10;;;;;;10226921;28;20242;-68
2023/05/22 17:57:05;;;;;;;9.48;5.32;;;25.90;80.70;;;;;;10222112;28;20031;-74
2023/05/22 18:01:55;;;;;;;11.43;6.32;;;25.90;80.90;;;;;;10231064;27;20055;-76
2023/05/22 18:06:46;;;;;;;10.52;6.55;;;25.70;81.20;;;;;;10226082;28;20032;-63
2023/05/22 18:11:37;;;;;;;7.90;5.43;;;25.60;81.40;;;;;;10222620;28;20134;-63
2023/05/22 18:16:27;;;;;;;10.52;6.30;;;25.70;81.70;;;;;;10238778;27;20460;-63
2023/05/22 18:21:18;;;;;;;7.22;5.65;;;25.50;82.00;;;;;;10228714;28;20381;-63
2023/05/22 18:26:09;;;;;;;7.38;5.57;;;25.10;82.90;;;;;;10228521;28;20477;-64
2023/05/22 18:31:00;;;;;;;8.35;5.45;;;24.70;83.50;;;;;;10236918;27;20431;-69
2023/05/22 18:35:50;;;;;;;9.98;5.40;;;24.60;84.10;;;;;;10230836;28;20015;-68
2023/05/22 18:40:41;;;;;;;7.82;5.88;;;24.50;85.10;;;;;;10204240;28;20118;-62
2023/05/22 18:45:32;;;;;;;7.15;5.18;;;24.40;84.70;;;;;;10229365;27;20073;-63
2023/05/22 18:50:23;;;;;;;7.43;4.65;;;24.40;84.70;;;;;;10227353;28;20027;-64
2023/05/22 18:55:13;;;;;;;6.38;4.93;;;24.20;85.10;;;;;;10209572;28;20024;-63
2023/05/22 19:00:05;;;;;;;6.13;3.95;;;24.00;85.50;;;;;;10225108;28;20044;-66
2023/05/22 19:04:56;;;;;;;7.22;4.75;;;23.90;85.80;;;;;;10227611;28;20485;-69
2023/05/22 19:09:48;;;;;;;8.45;6.18;;;23.90;85.90;;;;;;10226861;28;20106;-67
2023/05/22 19:14:39;;;;;;;6.15;4.63;;;23.70;86.20;;;;;;10233615;27;20032;-63
2023/05/22 19:19:29;;;;;;;7.38;5.70;;;23.60;86.60;;;;;;10228627;28;20031;-66
2023/05/22 19:24:21;;;;;;;7.35;5.70;;;23.60;86.70;;;;;;10226881;28;20020;-63
2023/05/22 19:29:11;;;;;;;6.47;4.53;;;23.50;87.30;;;;;;10234714;27;20366;-65
2023/05/22 19:34:03;;;;;;;7.88;4.82;;;23.60;88.10;;;;;;10225087;28;20027;-63
2023/05/22 19:38:53;;;;;;;7.75;5.53;;;23.60;87.40;;;;;;10225449;28;20067;-62
2023/05/22 19:43:44;;;;;;;9.57;5.25;;;23.60;87.40;;;;;;10217498;28;20023;-65
2023/05/22 19:48:35;;;;;;;8.20;5.10;;;23.60;87.60;;;;;;10216211;28;20410;-68
2023/05/22 19:53:25;;;;;;;6.75;4.75;;;23.50;87.90;;;;;;10227964;27;20068;-66
2023/05/22 19:58:16;;;;;;;8.52;4.72;;;23.60;87.80;;;;;;10223434;27;20040;-65
2023/05/22 20:03:07;;;;;;;8.25;5.25;;;23.50;88.00;;;;;;10202190;28;20139;-75
2023/05/22 20:07:58;;;;;;;10.98;5.78;;;23.40;88.50;;;;;;10200659;28;20115;-67
2023/05/22 20:12:53;;;;;;;9.95;5.90;;;23.20;88.90;;;;;;10214668;28;20032;-65
2023/05/22 20:17:46;;;;;;;9.43;5.50;;;23.20;89.30;;;;;;10216339;28;20031;-63
2023/05/22 20:22:37;;;;;;;7.93;5.18;;;23.20;89.30;;;;;;10221423;28;20055;-63
2023/05/22 20:27:27;;;;;;;9.60;4.95;;;23.00;89.60;;;;;;10222959;28;20499;-63
2023/05/22 20:32:18;;;;;;;8.48;5.25;;;23.10;89.70;;;;;;10228423;28;20023;-68
2023/05/22 20:37:08;;;;;;;8.82;5.38;;;23.10;89.70;;;;;;10234017;27;20059;-75
2023/05/22 20:42:02;;;;;;;7.70;5.43;;;23.20;89.80;;;;;;10221042;27;20047;-68
2023/05/22 20:46:52;;;;;;;8.65;5.18;;;23.20;90.00;;;;;;10229466;28;20042;-82
2023/05/22 20:51:43;;;;;;;10.02;6.07;;;23.10;90.20;;;;;;10234402;27;20496;-78
2023/05/22 20:56:34;;;;;;;9.38;6.50;;;23.00;90.30;;;;;;10241746;28;20031;-66
2023/05/22 21:01:24;;;;;;;8.95;4.97;;;23.00;90.30;;;;;;10234513;28;20071;-74
2023/05/22 21:06:15;;;;;;;10.32;7.18;;;23.00;90.40;;;;;;10228780;28;20023;-71
2023/05/22 21:11:06;;;;;;;9.30;5.50;;;23.10;90.30;;;;;;10223410;28;20024;-64
2023/05/22 21:15:56;;;;;;;9.50;5.38;;;22.80;90.60;;;;;;10206212;28;20023;-67
2023/05/22 21:20:47;;;;;;;6.97;4.57;;;22.70;90.70;;;;;;10227643;27;20035;-62
2023/05/22 21:25:38;;;;;;;8.85;6.00;;;22.60;90.90;;;;;;10205528;28;20081;-64
2023/05/22 21:30:28;;;;;;;7.72;5.80;;;22.70;91.00;;;;;;10222031;28;20030;-63
2023/05/22 21:35:19;;;;;;;7.30;5.85;;;22.70;91.10;;;;;;10238710;27;20080;-80
2023/05/22 21:40:10;;;;;;;8.70;5.25;;;22.60;91.10;;;;;;10204238;28;20104;-73
2023/05/22 21:45:01;;;;;;;9.68;6.28;;;22.70;91.20;;;;;;10208655;28;20023;-67
2023/05/22 21:49:51;;;;;;;9.07;6.28;;;22.40;91.40;;;;;;10218948;28;20040;-72
2023/05/22 21:54:42;;;;;;;7.50;5.40;;;22.20;91.80;;;;;;10205050;28;20020;-78
2023/05/22 21:59:33;;;;;;;8.32;5.70;;;22.20;92.20;;;;;;10199144;28;20039;-64
2023/05/22 22:04:23;;;;;;;7.85;5.68;;;22.10;92.10;;;;;;10231131;28;20042;-71
2023/05/22 22:09:14;;;;;;;9.85;6.47;;;22.00;92.30;;;;;;10223036;28;20027;-75
2023/05/22 22:14:06;;;;;;;9.77;6.57;;;22.00;92.30;;;;;;10226106;28;20377;-65
2023/05/22 22:18:56;;;;;;;9.40;6.38;;;21.80;92.70;;;;;;10222248;28;20027;-69
2023/05/22 22:23:47;;;;;;;8.23;5.75;;;21.80;92.90;;;;;;10222597;28;20016;-68
2023/05/22 22:28:38;;;;;;;7.35;5.32;;;21.60;93.20;;;;;;10222507;28;20030;-65
2023/05/22 22:33:29;;;;;;;9.40;6.20;;;21.70;93.20;;;;;;10207254;28;20024;-63
2023/05/22 22:38:19;;;;;;;8.88;6.05;;;21.70;93.40;;;;;;10221324;28;20404;-63
2023/05/22 22:43:10;;;;;;;7.75;5.30;;;21.80;93.60;;;;;;10208245;28;20039;-65
2023/05/22 22:48:02;;;;;;;8.82;6.55;;;21.60;93.80;;;;;;10217021;28;20545;-64
2023/05/22 22:52:52;;;;;;;9.07;6.20;;;21.70;94.10;;;;;;10229234;28;20031;-66
2023/05/22 22:57:45;;;;;;;6.35;5.03;;;21.60;94.10;;;;;;10239423;27;20118;-70
2023/05/22 23:02:36;;;;;;;9.68;6.20;;;21.70;94.20;;;;;;10222343;27;20420;-65
2023/05/22 23:07:27;;;;;;;9.27;6.55;;;21.50;94.50;;;;;;10210096;28;20084;-62
2023/05/22 23:12:17;;;;;;;10.23;6.97;;;21.30;94.70;;;;;;10212576;27;20476;-71
2023/05/22 23:17:08;;;;;;;11.43;6.53;;;21.50;95.00;;;;;;10227442;28;20415;-63
2023/05/22 23:21:58;;;;;;;10.95;6.55;;;21.40;95.20;;;;;;10227677;27;20039;-75
2023/05/22 23:26:51;;;;;;;9.43;6.88;;;21.30;95.50;;;;;;10235107;27;20042;-62
2023/05/22 23:31:42;;;;;;;9.48;6.45;;;21.30;95.60;;;;;;10226707;28;20047;-65
2023/05/22 23:36:32;;;;;;;9.38;5.88;;;21.40;95.80;;;;;;10229255;28;20389;-67
2023/05/22 23:41:23;;;;;;;9.80;7.03;;;21.30;95.70;;;;;;10229896;27;20031;-63
2023/05/22 23:46:14;;;;;;;10.93;7.65;;;21.30;96.00;;;;;;10214667;28;20363;-68
2023/05/22 23:51:07;;;;;;;10.65;7.07;;;21.30;96.00;;;;;;10227254;28;20032;-71
2023/05/22 23:55:58;;;;;;;10.65;6.65;;;21.30;96.20;;;;;;10227967;27;20016;-69
